createdAt,value
2022-07-28T00:00:20.870Z,37.56
2022-07-28T00:03:06.135Z,37.26
2022-07-28T00:05:51.666Z,37.67
2022-07-28T00:08:36.875Z,37.74
2022-07-28T00:11:22.583Z,37.73
2022-07-28T00:14:08.145Z,37.40
2022-07-28T00:16:53.604Z,37.85
2022-07-28T00:19:38.957Z,37.55
2022-07-28T00:22:24.235Z,37.67
2022-07-28T00:25:10.536Z,37.98
2022-07-28T00:27:55.620Z,37.75
2022-07-28T00:30:41.189Z,37.74
2022-07-28T00:33:26.464Z,37.80
2022-07-28T00:36:13.165Z,37.68
2022-07-28T00:38:58.515Z,37.85
2022-07-28T00:41:44.805Z,37.76
2022-07-28T00:44:30.116Z,37.98
2022-07-28T00:47:15.572Z,38.07
2022-07-28T00:50:05.987Z,37.83
2022-07-28T00:52:51.948Z,37.90
2022-07-28T00:56:03.312Z,37.81
2022-07-28T00:58:45.034Z,37.97
2022-07-28T01:01:30.336Z,38.17
2022-07-28T01:04:16.563Z,37.93
2022-07-28T01:07:14.426Z,37.94
2022-07-28T01:10:13.586Z,38.19
2022-07-28T01:13:09.376Z,38.18
2022-07-28T01:16:01.954Z,38.03
2022-07-28T01:18:47.023Z,38.02
2022-07-28T01:21:37.336Z,37.91
2022-07-28T01:24:31.219Z,38.03
2022-07-28T01:27:32.721Z,38.04
2022-07-28T01:30:34.162Z,38.02
2022-07-28T01:33:29.289Z,38.10
2022-07-28T01:36:20.330Z,38.25
2022-07-28T01:39:05.979Z,38.11
2022-07-28T01:41:54.889Z,38.14
2022-07-28T01:44:43.552Z,38.09
2022-07-28T01:47:30.484Z,38.33
2022-07-28T01:50:18.527Z,37.96
2022-07-28T01:53:04.704Z,38.02
2022-07-28T01:55:52.719Z,38.21
2022-07-28T01:58:39.102Z,38.04
2022-07-28T02:01:25.767Z,38.02
2022-07-28T02:04:14.113Z,38.14
2022-07-28T02:07:01.255Z,38.26
2022-07-28T02:09:47.867Z,38.12
2022-07-28T02:12:35.725Z,38.22
2022-07-28T02:15:22.448Z,37.94
2022-07-28T02:18:10.466Z,38.44
2022-07-28T02:20:55.751Z,38.48
2022-07-28T02:23:45.301Z,38.47
2022-07-28T02:26:36.757Z,38.68
2022-07-28T02:29:49.357Z,38.84
2022-07-28T02:32:45.439Z,38.53
2022-07-28T02:35:34.597Z,38.76
2022-07-28T02:38:39.200Z,38.66
2022-07-28T02:41:32.401Z,38.74
2022-07-28T02:44:20.132Z,38.70
2022-07-28T02:47:12.458Z,38.84
2022-07-28T02:50:01.862Z,38.97
2022-07-28T02:52:49.200Z,38.96
2022-07-28T02:55:36.134Z,38.86
2022-07-28T02:58:23.962Z,39.00
2022-07-28T03:01:10.174Z,38.97
2022-07-28T03:03:56.053Z,39.16
2022-07-28T03:06:42.288Z,39.08
2022-07-28T03:09:28.926Z,39.16
2022-07-28T03:12:15.130Z,39.13
2022-07-28T03:15:00.776Z,38.78
2022-07-28T03:17:46.117Z,39.23
2022-07-28T03:20:31.866Z,38.99
2022-07-28T03:23:17.549Z,39.08
2022-07-28T03:26:09.843Z,39.08
2022-07-28T03:28:57.019Z,39.13
2022-07-28T03:31:42.758Z,38.87
2022-07-28T03:34:29.691Z,38.94
2022-07-28T03:37:21.035Z,39.00
2022-07-28T03:40:10.483Z,38.96
2022-07-28T03:42:57.930Z,39.03
2022-07-28T03:45:46.702Z,38.93
2022-07-28T03:48:33.579Z,39.08
2022-07-28T03:51:18.981Z,39.26
2022-07-28T03:54:04.460Z,39.01
2022-07-28T03:56:49.712Z,39.13
2022-07-28T03:59:35.070Z,38.88
2022-07-28T04:02:20.612Z,39.05
2022-07-28T04:05:06.741Z,38.97
2022-07-28T04:07:52.125Z,38.80
2022-07-28T04:10:37.701Z,39.20
2022-07-28T04:13:23.663Z,39.22
2022-07-28T04:16:09.063Z,39.32
2022-07-28T04:18:54.322Z,39.16
2022-07-28T04:21:39.635Z,39.31
2022-07-28T04:24:24.936Z,39.26
2022-07-28T04:27:10.960Z,39.15
2022-07-28T04:29:56.179Z,39.18
2022-07-28T04:32:46.765Z,39.29
2022-07-28T04:35:33.919Z,39.24
2022-07-28T04:38:20.348Z,39.20
2022-07-28T04:41:05.768Z,39.22
2022-07-28T04:43:51.027Z,39.25
2022-07-28T04:46:36.413Z,39.45
2022-07-28T04:49:21.625Z,39.40
2022-07-28T04:52:08.309Z,39.12
2022-07-28T04:54:54.041Z,39.19
2022-07-28T04:57:40.107Z,39.32
2022-07-28T05:00:25.718Z,39.66
2022-07-28T05:03:11.283Z,39.20
2022-07-28T05:05:56.694Z,39.52
2022-07-28T05:08:42.089Z,39.52
2022-07-28T05:11:27.671Z,39.62
2022-07-28T05:14:13.505Z,39.51
2022-07-28T05:16:59.119Z,39.76
2022-07-28T05:19:45.025Z,39.67
2022-07-28T05:22:41.383Z,39.81
2022-07-28T05:25:26.780Z,39.98
2022-07-28T05:28:12.034Z,39.84
2022-07-28T05:30:57.294Z,40.02
2022-07-28T05:33:42.572Z,39.98
2022-07-28T05:36:27.824Z,40.08
2022-07-28T05:39:13.341Z,40.13
2022-07-28T05:42:00.078Z,40.29
2022-07-28T05:44:45.293Z,40.18
2022-07-28T05:47:30.901Z,40.29
2022-07-28T05:50:18.044Z,40.31
2022-07-28T05:53:03.996Z,40.44
2022-07-28T05:56:01.199Z,40.44
2022-07-28T05:58:47.009Z,40.30
2022-07-28T06:01:41.312Z,40.13
2022-07-28T06:04:30.408Z,40.25
2022-07-28T06:07:16.327Z,40.23
2022-07-28T06:10:01.718Z,40.26
2022-07-28T06:12:51.570Z,39.97
2022-07-28T06:15:40.514Z,39.87
2022-07-28T06:18:26.374Z,40.10
2022-07-28T06:21:11.916Z,39.96
2022-07-28T06:23:57.298Z,40.14
2022-07-28T06:26:45.172Z,39.88
2022-07-28T06:29:31.114Z,39.76
2022-07-28T06:32:17.195Z,39.94
2022-07-28T06:35:03.314Z,39.76
2022-07-28T06:37:50.547Z,40.02
2022-07-28T06:40:36.240Z,39.94
2022-07-28T06:43:22.389Z,39.83
2022-07-28T06:46:08.996Z,39.87
2022-07-28T06:48:54.820Z,39.91
2022-07-28T06:51:40.529Z,40.08
2022-07-28T06:54:28.295Z,39.87
2022-07-28T06:57:14.534Z,40.17
2022-07-28T07:00:04.793Z,40.09
2022-07-28T07:02:50.448Z,40.15
2022-07-28T07:05:35.747Z,39.85
2022-07-28T07:08:21.091Z,39.82
2022-07-28T07:11:06.686Z,39.98
2022-07-28T07:13:52.830Z,39.90
2022-07-28T07:16:38.319Z,39.84
2022-07-28T07:19:23.560Z,39.86
2022-07-28T07:22:09.008Z,39.59
2022-07-28T07:24:57.128Z,39.36
2022-07-28T07:27:43.945Z,39.55
2022-07-28T07:30:29.873Z,39.65
2022-07-28T07:33:15.636Z,39.54
2022-07-28T07:36:01.673Z,39.50
2022-07-28T07:38:47.966Z,39.43
2022-07-28T07:41:34.173Z,39.41
2022-07-28T07:44:19.737Z,39.66
2022-07-28T07:47:08.545Z,39.55
2022-07-28T07:49:54.985Z,39.49
2022-07-28T07:52:40.313Z,39.29
2022-07-28T07:55:25.665Z,39.35
2022-07-28T07:58:10.938Z,39.27
2022-07-28T08:00:56.435Z,38.90
2022-07-28T08:03:44.039Z,38.95
2022-07-28T08:06:33.713Z,38.50
2022-07-28T08:09:21.548Z,38.76
2022-07-28T08:12:07.925Z,38.77
2022-07-28T08:14:55.091Z,38.71
2022-07-28T08:17:40.653Z,38.76
2022-07-28T08:20:26.733Z,38.35
2022-07-28T08:23:12.097Z,38.12
2022-07-28T08:25:57.922Z,37.74
2022-07-28T08:28:44.359Z,38.11
2022-07-28T08:31:30.738Z,38.05
2022-07-28T08:34:26.281Z,38.35
2022-07-28T08:37:18.890Z,38.57
2022-07-28T08:40:06.602Z,38.47
2022-07-28T08:43:11.568Z,37.99
2022-07-28T08:45:59.676Z,38.32
2022-07-28T08:48:46.080Z,38.33
2022-07-28T08:51:31.683Z,38.36
2022-07-28T08:54:22.547Z,38.04
2022-07-28T08:57:10.638Z,37.98
2022-07-28T08:59:56.713Z,37.88
2022-07-28T09:02:45.817Z,37.92
2022-07-28T09:05:32.578Z,37.73
2022-07-28T09:08:19.567Z,38.01
2022-07-28T09:11:06.886Z,38.10
2022-07-28T09:13:54.169Z,37.74
2022-07-28T09:16:39.762Z,37.49
2022-07-28T09:19:25.186Z,37.29
2022-07-28T09:22:19.605Z,37.52
2022-07-28T09:25:17.930Z,37.41
2022-07-28T09:28:11.977Z,37.32
2022-07-28T09:31:06.507Z,37.07
2022-07-28T09:33:56.065Z,37.36
2022-07-28T09:36:42.024Z,37.21
2022-07-28T09:39:36.627Z,37.01
2022-07-28T09:42:22.050Z,36.93
2022-07-28T09:45:25.323Z,36.32
2022-07-28T09:48:12.369Z,35.84
2022-07-28T09:51:12.725Z,36.05
2022-07-28T09:54:16.607Z,36.28
2022-07-28T09:57:03.214Z,36.19
2022-07-28T09:59:52.239Z,36.37
2022-07-28T10:02:49.862Z,36.28
2022-07-28T10:05:40.961Z,36.55
2022-07-28T10:08:42.060Z,36.56
2022-07-28T10:11:30.203Z,36.54
2022-07-28T10:14:16.962Z,36.40
2022-07-28T10:17:05.993Z,36.47
2022-07-28T10:19:54.473Z,36.82
2022-07-28T10:22:43.518Z,36.88
2022-07-28T10:25:32.781Z,36.90
2022-07-28T10:28:21.920Z,36.89
2022-07-28T10:31:14.322Z,36.75
2022-07-28T10:34:02.487Z,36.71
2022-07-28T10:36:50.806Z,36.47
2022-07-28T10:39:51.792Z,36.86
2022-07-28T10:42:39.672Z,36.99
2022-07-28T10:45:48.088Z,38.66
2022-07-28T10:48:32.907Z,37.93
2022-07-28T10:51:21.195Z,37.97
2022-07-28T10:54:12.959Z,37.62
2022-07-28T10:57:06.428Z,37.86
2022-07-28T11:00:20.365Z,37.75
2022-07-28T11:03:13.832Z,37.10
2022-07-28T11:06:48.902Z,36.98
2022-07-28T11:09:34.205Z,37.04
2022-07-28T11:12:50.057Z,36.65
2022-07-28T11:15:38.036Z,36.78
2022-07-28T11:18:23.940Z,36.83
2022-07-28T11:21:10.190Z,36.69
2022-07-28T11:23:57.688Z,37.05
2022-07-28T11:26:44.991Z,37.55
2022-07-28T11:29:46.205Z,37.54
2022-07-28T11:32:51.646Z,37.48
2022-07-28T11:35:40.178Z,37.47
2022-07-28T11:38:26.237Z,38.53
2022-07-28T11:41:30.610Z,40.03
2022-07-28T11:44:28.288Z,40.30
2022-07-28T11:47:20.922Z,41.82
2022-07-28T11:50:12.987Z,41.99
2022-07-28T11:53:00.141Z,41.97
2022-07-28T11:55:49.371Z,43.61
2022-07-28T11:58:47.196Z,43.49
2022-07-28T12:01:37.076Z,42.17
2022-07-28T12:04:26.835Z,40.72
2022-07-28T12:07:13.350Z,40.72
2022-07-28T12:09:59.361Z,40.72
2022-07-28T12:12:52.883Z,39.58
2022-07-28T12:15:38.827Z,39.74
2022-07-28T12:18:25.083Z,39.43
2022-07-28T12:21:10.865Z,39.17
2022-07-28T12:23:58.113Z,38.75
2022-07-28T12:26:47.367Z,39.37
2022-07-28T12:29:36.708Z,38.68
2022-07-28T12:32:30.638Z,38.61
2022-07-28T12:35:16.083Z,39.12
2022-07-28T12:38:01.543Z,39.09
2022-07-28T12:40:48.129Z,38.87
2022-07-28T12:43:34.321Z,38.28
2022-07-28T12:46:25.175Z,37.68
2022-07-28T12:49:22.586Z,37.28
2022-07-28T12:52:23.048Z,37.35
2022-07-28T12:55:26.901Z,37.69
2022-07-28T12:58:24.246Z,38.16
2022-07-28T13:01:12.400Z,38.22
2022-07-28T13:03:58.335Z,37.15
2022-07-28T13:06:54.244Z,37.89
2022-07-28T13:09:51.899Z,37.89
2022-07-28T13:13:00.858Z,38.32
2022-07-28T13:16:12.508Z,37.48
2022-07-28T13:19:04.367Z,38.31
2022-07-28T13:21:56.605Z,38.58
2022-07-28T13:24:44.473Z,38.07
2022-07-28T13:27:30.081Z,38.08
2022-07-28T13:30:15.712Z,37.45
2022-07-28T13:33:00.990Z,36.28
2022-07-28T13:35:47.540Z,37.90
2022-07-28T13:38:33.647Z,37.20
2022-07-28T13:41:19.698Z,37.12
2022-07-28T13:44:05.654Z,36.16
2022-07-28T13:46:51.713Z,36.70
2022-07-28T13:49:37.986Z,36.20
2022-07-28T13:52:33.131Z,36.93
2022-07-28T13:55:22.933Z,37.32
2022-07-28T13:58:09.087Z,36.65
2022-07-28T14:00:54.517Z,36.26
2022-07-28T14:03:55.608Z,37.00
2022-07-28T14:06:44.941Z,37.15
2022-07-28T14:09:33.195Z,37.21
2022-07-28T14:12:20.820Z,36.32
2022-07-28T14:15:07.664Z,36.83
2022-07-28T14:17:53.353Z,36.95
2022-07-28T14:20:39.041Z,37.19
2022-07-28T14:23:25.484Z,36.17
2022-07-28T14:26:34.325Z,35.97
2022-07-28T14:29:16.890Z,36.11
2022-07-28T14:32:02.092Z,35.62
2022-07-28T14:34:47.421Z,35.37
2022-07-28T14:37:55.011Z,35.79
2022-07-28T14:40:39.801Z,36.59
2022-07-28T14:43:25.901Z,36.39
2022-07-28T14:46:16.353Z,36.21
2022-07-28T14:49:07.188Z,36.65
2022-07-28T14:51:52.836Z,36.80
2022-07-28T14:54:38.457Z,36.58
2022-07-28T14:57:48.240Z,36.59
2022-07-28T15:00:29.742Z,36.26
2022-07-28T15:03:15.212Z,36.36
2022-07-28T15:06:01.940Z,35.90
2022-07-28T15:08:47.767Z,37.16
2022-07-28T15:11:33.066Z,36.92
2022-07-28T15:14:18.986Z,36.79
2022-07-28T15:17:07.288Z,35.27
2022-07-28T15:19:53.304Z,35.26
2022-07-28T15:22:38.630Z,35.24
2022-07-28T15:25:24.238Z,35.56
2022-07-28T15:28:09.731Z,34.96
2022-07-28T15:30:55.408Z,35.31
2022-07-28T15:33:48.372Z,35.73
2022-07-28T15:36:40.355Z,35.56
2022-07-28T15:39:25.877Z,35.12
2022-07-28T15:42:16.517Z,36.29
2022-07-28T15:45:01.887Z,35.09
2022-07-28T15:47:47.335Z,35.67
2022-07-28T15:50:32.776Z,35.05
2022-07-28T15:53:18.656Z,35.43
2022-07-28T15:56:05.211Z,35.14
2022-07-28T15:58:50.500Z,34.96
2022-07-28T16:01:36.122Z,35.30
2022-07-28T16:04:21.577Z,35.13
2022-07-28T16:07:23.263Z,35.12
2022-07-28T16:10:09.116Z,35.03
2022-07-28T16:12:57.409Z,35.31
2022-07-28T16:15:42.977Z,35.92
2022-07-28T16:18:29.115Z,36.72
2022-07-28T16:21:14.526Z,36.48
2022-07-28T16:23:59.964Z,36.35
2022-07-28T16:26:45.510Z,36.31
2022-07-28T16:29:31.500Z,36.77
2022-07-28T16:32:17.351Z,36.50
2022-07-28T16:35:02.554Z,36.42
2022-07-28T16:37:48.260Z,36.17
2022-07-28T16:40:33.983Z,36.18
2022-07-28T16:43:19.502Z,36.56
2022-07-28T16:46:05.296Z,36.62
2022-07-28T16:48:51.048Z,36.48
2022-07-28T16:51:36.871Z,37.04
2022-07-28T16:54:22.777Z,35.84
2022-07-28T16:57:09.643Z,35.92
2022-07-28T16:59:55.070Z,35.89
2022-07-28T17:02:42.694Z,36.51
2022-07-28T17:05:30.517Z,36.46
2022-07-28T17:08:16.386Z,36.52
2022-07-28T17:11:02.179Z,36.03
2022-07-28T17:13:47.662Z,36.38
2022-07-28T17:16:33.137Z,36.15
2022-07-28T17:19:21.465Z,35.90
2022-07-28T17:22:07.496Z,35.75
2022-07-28T17:24:53.783Z,36.56
2022-07-28T17:27:44.637Z,36.69
2022-07-28T17:30:33.958Z,36.77
2022-07-28T17:33:19.319Z,36.45
2022-07-28T17:36:04.978Z,36.58
2022-07-28T17:38:51.352Z,36.32
2022-07-28T17:41:37.690Z,36.14
2022-07-28T17:44:24.828Z,36.29
2022-07-28T17:47:10.270Z,35.92
2022-07-28T17:49:56.729Z,36.33
2022-07-28T17:52:44.608Z,36.38
2022-07-28T17:56:00.366Z,36.63
2022-07-28T17:58:42.884Z,36.82
2022-07-28T18:01:29.312Z,36.82
2022-07-28T18:04:15.246Z,36.86
2022-07-28T18:07:01.531Z,36.95
2022-07-28T18:09:47.547Z,37.19
2022-07-28T18:12:33.568Z,36.51
2022-07-28T18:15:19.251Z,36.73
2022-07-28T18:18:05.780Z,36.52
2022-07-28T18:20:52.313Z,36.56
2022-07-28T18:23:41.125Z,36.76
2022-07-28T18:26:26.562Z,36.64
2022-07-28T18:29:11.904Z,36.93
2022-07-28T18:31:57.199Z,37.14
2022-07-28T18:34:45.364Z,37.18
2022-07-28T18:37:30.835Z,37.57
2022-07-28T18:40:18.301Z,37.33
2022-07-28T18:43:04.058Z,37.35
2022-07-28T18:45:50.084Z,37.97
2022-07-28T18:48:36.597Z,37.67
2022-07-28T18:51:22.971Z,37.23
2022-07-28T18:54:11.728Z,37.40
2022-07-28T18:56:57.404Z,38.09
2022-07-28T18:59:46.507Z,37.03
2022-07-28T19:02:34.831Z,37.72
2022-07-28T19:05:20.509Z,37.45
2022-07-28T19:08:06.113Z,37.44
2022-07-28T19:10:51.986Z,37.19
2022-07-28T19:13:37.258Z,37.07
2022-07-28T19:16:22.684Z,37.28
2022-07-28T19:19:07.991Z,36.89
2022-07-28T19:21:53.522Z,37.32
2022-07-28T19:24:39.108Z,37.24
2022-07-28T19:27:25.017Z,37.14
2022-07-28T19:30:16.119Z,37.26
2022-07-28T19:33:02.986Z,37.35
2022-07-28T19:35:48.645Z,37.20
2022-07-28T19:38:35.246Z,37.28
2022-07-28T19:41:21.098Z,37.33
2022-07-28T19:44:06.597Z,36.86
2022-07-28T19:46:53.907Z,36.73
2022-07-28T19:49:39.517Z,36.68
2022-07-28T19:52:24.839Z,36.56
2022-07-28T19:55:12.843Z,36.44
2022-07-28T19:58:03.364Z,36.43
2022-07-28T20:00:49.363Z,36.50
2022-07-28T20:04:00.994Z,36.46
2022-07-28T20:06:40.611Z,36.57
2022-07-28T20:09:26.476Z,36.27
2022-07-28T20:12:11.914Z,36.10
2022-07-28T20:14:57.316Z,36.98
2022-07-28T20:17:43.008Z,36.26
2022-07-28T20:20:28.633Z,36.24
2022-07-28T20:23:17.393Z,35.92
2022-07-28T20:26:02.781Z,36.07
2022-07-28T20:28:48.282Z,36.08
2022-07-28T20:31:33.753Z,36.02
2022-07-28T20:34:19.597Z,36.11
2022-07-28T20:37:05.410Z,36.01
2022-07-28T20:39:52.220Z,36.13
2022-07-28T20:42:37.632Z,36.39
2022-07-28T20:45:23.223Z,36.42
2022-07-28T20:48:08.661Z,35.99
2022-07-28T20:51:00.278Z,36.18
2022-07-28T20:53:47.292Z,36.29
2022-07-28T20:56:32.508Z,36.30
2022-07-28T20:59:17.757Z,36.30
2022-07-28T21:02:03.072Z,36.69
2022-07-28T21:04:50.285Z,36.08
2022-07-28T21:08:04.928Z,36.50
2022-07-28T21:10:41.775Z,36.29
2022-07-28T21:13:26.944Z,36.44
2022-07-28T21:16:13.130Z,36.51
2022-07-28T21:19:00.109Z,36.17
2022-07-28T21:21:45.643Z,36.03
2022-07-28T21:24:31.078Z,36.25
2022-07-28T21:27:17.545Z,36.21
2022-07-28T21:30:02.933Z,36.02
2022-07-28T21:32:48.400Z,35.96
2022-07-28T21:35:33.826Z,36.30
2022-07-28T21:38:19.531Z,36.02
2022-07-28T21:41:04.955Z,36.22
2022-07-28T21:43:50.219Z,36.13
2022-07-28T21:46:36.628Z,36.15
2022-07-28T21:49:21.944Z,35.98
2022-07-28T21:52:07.744Z,36.14
2022-07-28T21:54:53.091Z,36.18
2022-07-28T21:57:38.525Z,36.17
2022-07-28T22:00:24.157Z,36.25
2022-07-28T22:03:09.722Z,36.17
2022-07-28T22:05:55.259Z,36.08
2022-07-28T22:08:40.696Z,36.19
2022-07-28T22:11:25.833Z,36.18
2022-07-28T22:14:11.329Z,36.13
2022-07-28T22:16:56.571Z,36.17
2022-07-28T22:19:41.746Z,36.04
2022-07-28T22:22:26.913Z,36.29
2022-07-28T22:25:12.299Z,36.23
2022-07-28T22:27:57.760Z,36.42
2022-07-28T22:30:43.148Z,36.47
2022-07-28T22:33:28.496Z,36.38
2022-07-28T22:36:14.095Z,36.56
2022-07-28T22:38:59.424Z,36.50
2022-07-28T22:41:44.654Z,36.58
2022-07-28T22:44:33.231Z,36.57
2022-07-28T22:47:18.847Z,36.62
2022-07-28T22:50:05.606Z,36.41
2022-07-28T22:52:50.990Z,36.62
2022-07-28T22:55:36.412Z,36.50
2022-07-28T22:58:21.638Z,36.53
2022-07-28T23:01:07.195Z,37.01
2022-07-28T23:03:52.703Z,37.12
2022-07-28T23:06:38.325Z,37.11
2022-07-28T23:09:23.650Z,36.90
2022-07-28T23:12:10.144Z,36.95
2022-07-28T23:14:55.447Z,37.17
2022-07-28T23:17:41.209Z,37.36
2022-07-28T23:20:26.563Z,37.23
2022-07-28T23:23:14.820Z,37.11
2022-07-28T23:26:00.489Z,37.41
2022-07-28T23:28:45.943Z,37.50
2022-07-28T23:31:31.275Z,37.50
2022-07-28T23:34:16.914Z,37.45
2022-07-28T23:37:02.996Z,37.60
2022-07-28T23:39:48.293Z,37.51
2022-07-28T23:42:33.451Z,37.56
2022-07-28T23:45:18.878Z,37.51
2022-07-28T23:48:04.606Z,37.62
2022-07-28T23:50:50.149Z,37.87
2022-07-28T23:53:39.735Z,37.78
2022-07-28T23:56:25.018Z,37.77
2022-07-28T23:59:13.694Z,37.95
